Time;durP1;ratioP1;P1;durP2;ratioP2;P2;SDS_P1;SDS_P2;PMS_P1;PMS_P2;Temp;Humidity;BMP_temperature;BMP_pressure;BME280_temperature;BME280_humidity;BME280_pressure;Samples;Min_cycle;Max_cycle;Signal;HPM_P1;HPM_P2
2023/12/02 00:02:03;;;;;;;0.20;0.20;;;;;;;;;;5057151;28;20028;-80
2023/12/02 00:04:28;;;;;;;2.22;0.80;;;;;;;;;;5057655;28;20542;-81
2023/12/02 00:06:53;;;;;;;0.80;0.43;;;;;;;;;;5060766;28;20039;-82
2023/12/02 00:09:21;;;;;;;0.50;0.50;;;;;;;;;;5059241;28;20032;-82
2023/12/02 00:11:50;;;;;;;2.05;0.50;;;;;;;;;;5056449;28;20032;-84
2023/12/02 00:14:16;;;;;;;1.05;0.50;;;;;;;;;;5055440;28;20044;-82
2023/12/02 00:16:41;;;;;;;1.05;0.95;;;;;;;;;;5064595;28;20032;-82
2023/12/02 00:19:07;;;;;;;0.30;0.30;;;;;;;;;;5049586;28;20433;-82
2023/12/02 00:21:32;;;;;;;0.52;0.50;;;;;;;;;;5057573;28;20091;-80
2023/12/02 00:23:58;;;;;;;0.38;0.38;;;;;;;;;;5053355;28;20101;-81
2023/12/02 00:26:23;;;;;;;1.35;0.65;;;;;;;;;;5058137;28;20055;-80
2023/12/02 00:28:49;;;;;;;1.30;0.50;;;;;;;;;;5059992;28;20021;-82
2023/12/02 00:31:14;;;;;;;0.85;0.70;;;;;;;;;;5055542;28;20047;-83
2023/12/02 00:33:40;;;;;;;1.65;0.60;;;;;;;;;;5064240;28;20036;-82
2023/12/02 00:36:05;;;;;;;0.55;0.40;;;;;;;;;;5054878;28;20121;-82
2023/12/02 00:38:31;;;;;;;0.32;0.32;;;;;;;;;;5050477;28;20396;-83
2023/12/02 00:40:57;;;;;;;0.70;0.65;;;;;;;;;;5053342;28;20040;-81
2023/12/02 00:43:25;;;;;;;0.50;0.50;;;;;;;;;;5057503;28;20036;-81
2023/12/02 00:45:51;;;;;;;0.75;0.68;;;;;;;;;;5055236;28;20090;-83
2023/12/02 00:48:18;;;;;;;0.40;0.40;;;;;;;;;;5059271;28;20036;-81
2023/12/02 00:50:44;;;;;;;1.30;0.93;;;;;;;;;;5058713;28;20021;-81
2023/12/02 00:53:09;;;;;;;0.30;0.30;;;;;;;;;;5054019;28;20036;-81
2023/12/02 00:55:35;;;;;;;0.40;0.40;;;;;;;;;;5062514;28;20724;-83
2023/12/02 00:58:05;;;;;;;1.08;0.75;;;;;;;;;;5055774;28;20392;-83
2023/12/02 01:00:31;;;;;;;0.30;0.30;;;;;;;;;;5061294;28;20480;-79
2023/12/02 01:02:56;;;;;;;0.20;0.20;;;;;;;;;;5058001;28;20029;-82
2023/12/02 01:05:22;;;;;;;0.43;0.32;;;;;;;;;;5062478;28;20118;-83
2023/12/02 01:07:48;;;;;;;2.85;0.60;;;;;;;;;;5056609;28;20499;-81
2023/12/02 01:10:15;;;;;;;0.40;0.28;;;;;;;;;;5056664;28;20384;-82
2023/12/02 01:12:41;;;;;;;1.20;0.20;;;;;;;;;;5055514;28;20083;-79
2023/12/02 01:15:17;;;;;;;1.50;0.88;;;;;;;;;;5055582;28;20480;-83
2023/12/02 01:17:49;;;;;;;0.65;0.28;;;;;;;;;;5058943;28;20085;-83
2023/12/02 01:20:17;;;;;;;0.32;0.30;;;;;;;;;;5053411;28;20021;-81
2023/12/02 01:22:45;;;;;;;0.60;0.40;;;;;;;;;;5056799;28;20039;-83
2023/12/02 01:25:11;;;;;;;0.30;0.30;;;;;;;;;;5063415;28;20052;-83
2023/12/02 01:27:36;;;;;;;0.38;0.35;;;;;;;;;;5059514;28;20032;-83
2023/12/02 01:30:02;;;;;;;0.68;0.45;;;;;;;;;;5053286;28;20749;-82
2023/12/02 01:32:28;;;;;;;1.73;0.77;;;;;;;;;;5054617;28;20052;-82
2023/12/02 01:34:56;;;;;;;1.15;0.77;;;;;;;;;;5053693;28;20033;-80
2023/12/02 01:37:22;;;;;;;3.95;0.63;;;;;;;;;;5055106;28;20072;-82
2023/12/02 01:39:47;;;;;;;3.50;0.77;;;;;;;;;;5049610;28;20039;-82
2023/12/02 01:42:13;;;;;;;0.90;0.75;;;;;;;;;;5054775;28;20051;-83
2023/12/02 01:44:40;;;;;;;0.60;0.60;;;;;;;;;;5048991;28;20430;-81
2023/12/02 01:47:06;;;;;;;5.25;0.63;;;;;;;;;;5052942;28;20024;-83
2023/12/02 01:49:32;;;;;;;0.47;0.47;;;;;;;;;;5054511;28;20508;-84
2023/12/02 01:52:09;;;;;;;0.55;0.30;;;;;;;;;;5063844;28;20028;-82
2023/12/02 01:54:37;;;;;;;0.45;0.43;;;;;;;;;;5055995;28;20123;-82
2023/12/02 01:57:03;;;;;;;0.77;0.45;;;;;;;;;;5058718;28;20492;-82
2023/12/02 01:59:30;;;;;;;0.52;0.30;;;;;;;;;;5050431;28;20025;-83
2023/12/02 02:01:56;;;;;;;0.47;0.32;;;;;;;;;;5063548;28;20029;-83
2023/12/02 02:04:25;;;;;;;0.52;0.40;;;;;;;;;;5054493;28;20343;-84
2023/12/02 02:06:53;;;;;;;0.80;0.52;;;;;;;;;;5056025;28;20033;-80
2023/12/02 02:09:18;;;;;;;0.77;0.73;;;;;;;;;;5053711;28;20029;-83
2023/12/02 02:11:48;;;;;;;1.13;0.47;;;;;;;;;;5058495;28;21272;-83
2023/12/02 02:14:14;;;;;;;0.70;0.43;;;;;;;;;;5054451;28;20029;-83
2023/12/02 02:16:39;;;;;;;0.30;0.30;;;;;;;;;;5050041;28;20044;-84
2023/12/02 02:19:10;;;;;;;1.10;0.93;;;;;;;;;;5053274;28;20025;-83
2023/12/02 02:21:41;;;;;;;0.75;0.50;;;;;;;;;;5061052;28;20484;-84
2023/12/02 02:24:07;;;;;;;0.30;0.30;;;;;;;;;;5061536;28;20078;-85
2023/12/02 02:26:32;;;;;;;0.32;0.32;;;;;;;;;;5054175;28;20056;-83
2023/12/02 02:28:58;;;;;;;20.58;0.65;;;;;;;;;;5060295;28;20021;-83
2023/12/02 02:31:23;;;;;;;0.82;0.73;;;;;;;;;;5055799;28;20388;-83
2023/12/02 02:33:51;;;;;;;2.08;1.17;;;;;;;;;;5057951;28;20025;-85
2023/12/02 02:36:17;;;;;;;0.30;0.30;;;;;;;;;;5061393;28;20017;-84
2023/12/02 02:38:42;;;;;;;0.68;0.68;;;;;;;;;;5058957;28;20169;-84
2023/12/02 02:41:08;;;;;;;0.65;0.38;;;;;;;;;;5062943;28;20114;-83
2023/12/02 02:43:33;;;;;;;0.65;0.38;;;;;;;;;;5059475;28;20107;-83
2023/12/02 02:45:59;;;;;;;0.28;0.28;;;;;;;;;;5059105;28;20107;-83
2023/12/02 02:48:24;;;;;;;0.10;0.10;;;;;;;;;;5055018;28;20039;-83
2023/12/02 02:50:50;;;;;;;0.38;0.38;;;;;;;;;;5056101;28;20048;-81
2023/12/02 02:53:15;;;;;;;0.20;0.20;;;;;;;;;;5053050;28;20149;-82
2023/12/02 02:55:41;;;;;;;4.38;0.70;;;;;;;;;;5058406;28;20032;-79
2023/12/02 02:58:06;;;;;;;0.38;0.20;;;;;;;;;;5056353;28;20029;-81
2023/12/02 03:00:33;;;;;;;0.82;0.55;;;;;;;;;;5058594;28;20477;-82
2023/12/02 03:02:58;;;;;;;5.68;1.80;;;;;;;;;;5051150;28;20036;-81
2023/12/02 03:05:24;;;;;;;1.27;0.73;;;;;;;;;;5056184;28;20044;-82
2023/12/02 03:07:49;;;;;;;1.33;1.02;;;;;;;;;;5055111;28;20063;-83
2023/12/02 03:10:15;;;;;;;2.25;0.90;;;;;;;;;;5060822;28;20025;-82
2023/12/02 03:12:45;;;;;;;1.13;1.02;;;;;;;;;;5052393;28;20029;-83
2023/12/02 03:15:12;;;;;;;0.65;0.30;;;;;;;;;;5058139;28;20473;-81
2023/12/02 03:17:39;;;;;;;0.90;0.30;;;;;;;;;;5063358;28;20059;-82
2023/12/02 03:20:06;;;;;;;3.92;0.77;;;;;;;;;;5059491;28;20040;-83
2023/12/02 03:22:34;;;;;;;0.50;0.40;;;;;;;;;;5064942;28;20028;-82
2023/12/02 03:25:00;;;;;;;0.30;0.30;;;;;;;;;;5060943;28;20028;-82
2023/12/02 03:27:25;;;;;;;0.73;0.73;;;;;;;;;;5063330;28;20098;-84
2023/12/02 03:29:53;;;;;;;0.65;0.40;;;;;;;;;;5063333;28;20031;-85
2023/12/02 03:32:21;;;;;;;0.43;0.30;;;;;;;;;;5058602;28;20032;-83
2023/12/02 03:34:47;;;;;;;0.57;0.57;;;;;;;;;;5061944;28;20052;-82
2023/12/02 03:37:12;;;;;;;0.35;0.35;;;;;;;;;;5058478;28;20681;-83
2023/12/02 03:39:38;;;;;;;0.43;0.43;;;;;;;;;;5062699;28;20029;-80
2023/12/02 03:42:04;;;;;;;2.85;1.95;;;;;;;;;;5057569;28;20032;-82
2023/12/02 03:44:29;;;;;;;0.20;0.20;;;;;;;;;;5064435;28;20066;-83
2023/12/02 03:46:55;;;;;;;0.40;0.40;;;;;;;;;;5053995;28;20028;-83
2023/12/02 03:49:20;;;;;;;2.60;1.10;;;;;;;;;;5056622;28;20021;-82
2023/12/02 03:51:45;;;;;;;1.85;0.60;;;;;;;;;;5064023;28;20931;-83
2023/12/02 03:54:11;;;;;;;4.78;1.75;;;;;;;;;;5059570;28;20025;-83
2023/12/02 03:56:39;;;;;;;1.40;0.60;;;;;;;;;;5053965;28;20037;-84
2023/12/02 03:59:05;;;;;;;1.70;0.82;;;;;;;;;;5055702;28;20036;-82
2023/12/02 04:01:31;;;;;;;0.90;0.55;;;;;;;;;;5061492;28;20028;-82
2023/12/02 04:03:57;;;;;;;0.40;0.30;;;;;;;;;;5054883;28;20033;-83
2023/12/02 04:06:23;;;;;;;0.25;0.25;;;;;;;;;;5055819;28;20042;-84
2023/12/02 04:08:51;;;;;;;3.42;1.65;;;;;;;;;;5057437;28;20475;-80
2023/12/02 04:11:17;;;;;;;0.15;0.15;;;;;;;;;;5059089;28;20043;-83
2023/12/02 04:13:42;;;;;;;1.27;0.80;;;;;;;;;;5062022;28;20028;-81
2023/12/02 04:16:08;;;;;;;1.10;0.55;;;;;;;;;;5054137;28;20060;-82
2023/12/02 04:18:34;;;;;;;1.98;0.47;;;;;;;;;;5055193;28;20020;-81
2023/12/02 04:21:00;;;;;;;0.85;0.85;;;;;;;;;;5056464;28;20793;-82
2023/12/02 04:23:25;;;;;;;0.73;0.73;;;;;;;;;;5054168;28;20035;-82
2023/12/02 04:25:51;;;;;;;4.22;0.75;;;;;;;;;;5057200;28;20124;-82
2023/12/02 04:28:16;;;;;;;1.20;0.40;;;;;;;;;;5058213;28;20028;-82
2023/12/02 04:30:42;;;;;;;0.88;0.60;;;;;;;;;;5059053;28;20108;-82
2023/12/02 04:33:08;;;;;;;1.13;1.13;;;;;;;;;;5063634;28;20041;-83
2023/12/02 04:35:36;;;;;;;0.98;0.60;;;;;;;;;;5055774;28;20029;-83
2023/12/02 04:38:04;;;;;;;0.22;0.22;;;;;;;;;;5053202;28;20029;-83
2023/12/02 04:40:31;;;;;;;2.38;0.93;;;;;;;;;;5060452;28;20036;-83
2023/12/02 04:42:57;;;;;;;0.70;0.50;;;;;;;;;;5063898;28;20051;-82
2023/12/02 04:45:22;;;;;;;0.30;0.30;;;;;;;;;;5065373;28;20170;-83
2023/12/02 04:47:48;;;;;;;0.55;0.55;;;;;;;;;;5055661;28;20112;-84
2023/12/02 04:50:13;;;;;;;0.65;0.65;;;;;;;;;;5057790;28;20111;-82
2023/12/02 04:52:39;;;;;;;0.40;0.40;;;;;;;;;;5060013;28;20024;-84
2023/12/02 04:55:05;;;;;;;1.55;0.50;;;;;;;;;;5050474;28;20415;-83
2023/12/02 04:57:30;;;;;;;2.22;0.75;;;;;;;;;;5063250;28;20029;-83
2023/12/02 04:59:56;;;;;;;1.02;0.80;;;;;;;;;;5054122;28;20496;-82
2023/12/02 05:02:22;;;;;;;0.38;0.38;;;;;;;;;;5052360;28;20434;-84
2023/12/02 05:04:48;;;;;;;1.50;1.00;;;;;;;;;;5057337;28;20028;-83
2023/12/02 05:07:16;;;;;;;4.68;0.63;;;;;;;;;;5054933;28;20334;-83
2023/12/02 05:09:42;;;;;;;0.47;0.35;;;;;;;;;;5057840;28;20203;-83
2023/12/02 05:12:08;;;;;;;0.63;0.45;;;;;;;;;;5052258;28;20131;-83
2023/12/02 05:14:34;;;;;;;0.57;0.57;;;;;;;;;;5051688;28;20110;-83
2023/12/02 05:17:02;;;;;;;0.85;0.38;;;;;;;;;;5050488;28;20059;-82
2023/12/02 05:19:28;;;;;;;3.40;0.98;;;;;;;;;;5055051;28;20358;-81
2023/12/02 05:21:56;;;;;;;4.75;0.60;;;;;;;;;;5049956;28;20039;-82
2023/12/02 05:24:25;;;;;;;0.63;0.63;;;;;;;;;;5052908;28;20020;-81
2023/12/02 05:26:53;;;;;;;1.52;0.98;;;;;;;;;;5051575;28;20516;-80
2023/12/02 05:29:19;;;;;;;3.63;0.57;;;;;;;;;;5056248;28;20423;-81
2023/12/02 05:31:47;;;;;;;0.75;0.75;;;;;;;;;;5060598;28;20028;-83
2023/12/02 05:34:15;;;;;;;0.38;0.38;;;;;;;;;;5052579;28;20025;-81
2023/12/02 05:36:45;;;;;;;4.90;1.77;;;;;;;;;;5054257;28;20033;-81
2023/12/02 05:39:11;;;;;;;0.20;0.20;;;;;;;;;;5049995;28;20021;-82
2023/12/02 05:41:40;;;;;;;3.35;0.93;;;;;;;;;;5044956;28;20041;-80
2023/12/02 05:44:06;;;;;;;0.47;0.32;;;;;;;;;;5058845;28;20028;-83
2023/12/02 05:46:34;;;;;;;0.85;0.43;;;;;;;;;;5057901;28;20117;-83
2023/12/02 05:49:02;;;;;;;1.23;0.82;;;;;;;;;;5050075;28;20047;-82
2023/12/02 05:51:27;;;;;;;1.08;0.75;;;;;;;;;;5060350;28;20393;-81
2023/12/02 05:53:53;;;;;;;0.20;0.20;;;;;;;;;;5058732;28;20083;-81
2023/12/02 05:56:21;;;;;;;1.35;0.57;;;;;;;;;;5053923;28;20043;-81
2023/12/02 05:58:48;;;;;;;0.25;0.25;;;;;;;;;;5060133;28;20040;-81
2023/12/02 06:01:19;;;;;;;1.38;0.52;;;;;;;;;;5058099;28;20078;-81
2023/12/02 06:03:44;;;;;;;5.75;0.52;;;;;;;;;;5052246;28;20044;-81
2023/12/02 06:06:13;;;;;;;0.63;0.35;;;;;;;;;;5059109;28;20031;-81
2023/12/02 06:08:39;;;;;;;0.52;0.43;;;;;;;;;;5050112;28;20093;-81
2023/12/02 06:11:05;;;;;;;0.30;0.30;;;;;;;;;;5048743;28;20598;-80
2023/12/02 06:13:33;;;;;;;0.10;0.10;;;;;;;;;;5051503;28;20106;-83
2023/12/02 06:15:58;;;;;;;0.63;0.50;;;;;;;;;;5054210;28;20383;-82
2023/12/02 06:18:23;;;;;;;1.35;0.82;;;;;;;;;;5047466;28;20131;-82
2023/12/02 06:20:49;;;;;;;0.50;0.40;;;;;;;;;;5059177;28;20155;-82
2023/12/02 06:23:17;;;;;;;0.75;0.40;;;;;;;;;;5050018;28;20032;-80
2023/12/02 06:25:42;;;;;;;1.75;0.57;;;;;;;;;;5048901;28;20423;-80
2023/12/02 06:28:16;;;;;;;0.40;0.40;;;;;;;;;;5056282;28;20131;-81
2023/12/02 06:30:41;;;;;;;1.20;0.80;;;;;;;;;;5051251;28;20029;-80
2023/12/02 06:33:07;;;;;;;0.80;0.50;;;;;;;;;;5052447;28;20039;-79
2023/12/02 06:35:32;;;;;;;0.20;0.20;;;;;;;;;;5056409;28;20028;-80
2023/12/02 06:37:58;;;;;;;0.57;0.52;;;;;;;;;;5058678;28;20028;-82
2023/12/02 06:40:23;;;;;;;0.77;0.50;;;;;;;;;;5055332;28;20048;-81
2023/12/02 06:42:49;;;;;;;0.38;0.35;;;;;;;;;;5058150;28;20021;-80
2023/12/02 06:45:14;;;;;;;0.65;0.52;;;;;;;;;;5060641;28;20059;-82
2023/12/02 06:47:40;;;;;;;0.77;0.38;;;;;;;;;;5055460;28;20052;-80
2023/12/02 06:50:07;;;;;;;0.20;0.20;;;;;;;;;;5043440;28;20036;-80
2023/12/02 06:52:32;;;;;;;4.65;1.02;;;;;;;;;;5044964;28;20071;-83
2023/12/02 06:54:58;;;;;;;0.68;0.60;;;;;;;;;;5055789;28;20389;-82
2023/12/02 06:57:23;;;;;;;2.65;0.90;;;;;;;;;;5047913;28;20028;-81
2023/12/02 06:59:51;;;;;;;1.90;0.65;;;;;;;;;;5051322;28;20477;-80
2023/12/02 07:02:16;;;;;;;1.25;0.73;;;;;;;;;;5056854;28;20029;-82
2023/12/02 07:04:42;;;;;;;0.52;0.30;;;;;;;;;;5047903;28;20032;-82
2023/12/02 07:07:07;;;;;;;1.55;0.30;;;;;;;;;;5049291;28;20107;-81
2023/12/02 07:09:32;;;;;;;3.28;1.23;;;;;;;;;;5056787;28;20395;-82
2023/12/02 07:11:58;;;;;;;6.40;1.40;;;;;;;;;;5053212;28;20487;-82
2023/12/02 07:14:23;;;;;;;0.28;0.28;;;;;;;;;;5054974;28;20056;-82
2023/12/02 07:16:49;;;;;;;0.85;0.47;;;;;;;;;;5056347;28;20040;-82
2023/12/02 07:19:14;;;;;;;0.70;0.45;;;;;;;;;;5062130;28;20469;-82
2023/12/02 07:21:39;;;;;;;0.50;0.50;;;;;;;;;;5058354;28;20028;-82
2023/12/02 07:24:05;;;;;;;1.10;0.90;;;;;;;;;;5062530;28;20032;-81
2023/12/02 07:26:31;;;;;;;0.50;0.43;;;;;;;;;;5053542;28;20096;-82
2023/12/02 07:28:56;;;;;;;0.75;0.45;;;;;;;;;;5054784;28;20025;-80
2023/12/02 07:31:21;;;;;;;3.97;1.15;;;;;;;;;;5054666;28;20439;-82
2023/12/02 07:33:47;;;;;;;1.35;0.88;;;;;;;;;;5048351;28;20029;-82
2023/12/02 07:36:12;;;;;;;2.97;0.98;;;;;;;;;;5052123;28;20040;-82
2023/12/02 07:38:40;;;;;;;1.23;1.05;;;;;;;;;;5051402;28;20461;-80
2023/12/02 07:41:07;;;;;;;2.67;0.50;;;;;;;;;;5052129;28;20029;-80
2023/12/02 07:43:32;;;;;;;1.90;1.05;;;;;;;;;;5051754;28;20440;-80
2023/12/02 07:45:58;;;;;;;0.95;0.43;;;;;;;;;;5055920;28;20029;-81
2023/12/02 07:48:23;;;;;;;0.30;0.30;;;;;;;;;;5050361;28;20025;-81
2023/12/02 07:50:49;;;;;;;0.40;0.40;;;;;;;;;;5051579;28;20044;-82
2023/12/02 07:53:14;;;;;;;0.80;0.75;;;;;;;;;;5054006;28;20047;-80
2023/12/02 07:55:40;;;;;;;0.75;0.50;;;;;;;;;;5050818;28;20064;-81
2023/12/02 07:58:05;;;;;;;3.10;0.43;;;;;;;;;;5053159;28;20033;-80
2023/12/02 08:00:30;;;;;;;0.90;0.55;;;;;;;;;;5056702;28;20498;-81
2023/12/02 08:02:56;;;;;;;1.42;1.00;;;;;;;;;;5051471;28;20025;-81
2023/12/02 08:05:21;;;;;;;5.30;0.90;;;;;;;;;;5055988;28;20029;-83
2023/12/02 08:07:47;;;;;;;1.95;1.05;;;;;;;;;;5061396;28;20032;-81
2023/12/02 08:10:12;;;;;;;1.27;0.93;;;;;;;;;;5066005;28;20044;-80
2023/12/02 08:12:38;;;;;;;2.03;1.05;;;;;;;;;;5053830;28;20095;-81
2023/12/02 08:15:05;;;;;;;5.30;1.05;;;;;;;;;;5059672;28;20035;-80
2023/12/02 08:17:30;;;;;;;1.48;0.57;;;;;;;;;;5058200;28;20381;-80
2023/12/02 08:19:56;;;;;;;1.75;1.02;;;;;;;;;;5050582;28;20112;-81
2023/12/02 08:22:24;;;;;;;0.60;0.57;;;;;;;;;;5062462;28;20042;-81
2023/12/02 08:24:52;;;;;;;2.47;1.33;;;;;;;;;;5055933;28;20044;-82
2023/12/02 08:27:18;;;;;;;2.28;1.05;;;;;;;;;;5050645;28;20045;-81
2023/12/02 08:29:44;;;;;;;1.33;1.17;;;;;;;;;;5059490;28;20728;-82
2023/12/02 08:32:09;;;;;;;0.90;0.73;;;;;;;;;;5054701;28;20060;-79
2023/12/02 08:34:35;;;;;;;0.98;0.70;;;;;;;;;;5056168;28;20079;-79
2023/12/02 08:37:00;;;;;;;0.68;0.38;;;;;;;;;;5054893;28;20033;-79
2023/12/02 08:39:26;;;;;;;1.05;0.88;;;;;;;;;;5052897;28;20086;-78
2023/12/02 08:41:51;;;;;;;2.70;0.88;;;;;;;;;;5053777;28;20024;-80
2023/12/02 08:44:17;;;;;;;0.80;0.65;;;;;;;;;;5055258;28;20120;-80
2023/12/02 08:46:42;;;;;;;0.90;0.80;;;;;;;;;;5057354;28;20032;-78
2023/12/02 08:49:08;;;;;;;0.80;0.77;;;;;;;;;;5053000;28;20029;-79
2023/12/02 08:51:33;;;;;;;0.43;0.30;;;;;;;;;;5052362;28;20028;-79
2023/12/02 08:54:00;;;;;;;0.40;0.40;;;;;;;;;;5064536;28;20136;-80
2023/12/02 08:56:27;;;;;;;0.50;0.40;;;;;;;;;;5058287;28;20039;-80
2023/12/02 08:58:53;;;;;;;4.47;1.55;;;;;;;;;;5059211;28;20409;-80
2023/12/02 09:01:19;;;;;;;2.10;0.60;;;;;;;;;;5055575;28;20028;-80
2023/12/02 09:03:44;;;;;;;0.60;0.60;;;;;;;;;;5064655;28;20029;-79
2023/12/02 09:06:10;;;;;;;3.50;1.08;;;;;;;;;;5055153;28;20032;-80
2023/12/02 09:08:35;;;;;;;1.77;0.93;;;;;;;;;;5053731;28;20024;-78
2023/12/02 09:11:02;;;;;;;5.28;1.83;;;;;;;;;;5062123;28;20024;-79
2023/12/02 09:13:27;;;;;;;3.95;1.05;;;;;;;;;;5058347;28;20124;-78
2023/12/02 09:15:53;;;;;;;2.42;0.95;;;;;;;;;;5060981;28;20116;-79
2023/12/02 09:18:29;;;;;;;1.17;0.80;;;;;;;;;;5063196;28;20033;-78
2023/12/02 09:20:55;;;;;;;0.80;0.80;;;;;;;;;;5051553;28;20033;-80
2023/12/02 09:23:21;;;;;;;1.48;0.82;;;;;;;;;;5045786;28;20086;-79
2023/12/02 09:25:48;;;;;;;1.20;0.50;;;;;;;;;;5048917;28;20041;-78
2023/12/02 09:28:15;;;;;;;0.70;0.43;;;;;;;;;;5054848;28;20464;-78
2023/12/02 09:30:49;;;;;;;11.65;1.40;;;;;;;;;;5054853;28;20025;-79
2023/12/02 09:33:16;;;;;;;1.02;0.80;;;;;;;;;;5054503;28;20037;-79
2023/12/02 09:35:42;;;;;;;1.73;1.25;;;;;;;;;;5052125;28;20357;-81
2023/12/02 09:38:08;;;;;;;0.60;0.60;;;;;;;;;;5046040;28;20033;-78
2023/12/02 09:41:04;;;;;;;5.57;1.50;;;;;;;;;;5055155;28;20073;-78
2023/12/02 09:43:43;;;;;;;0.30;0.20;;;;;;;;;;5060725;28;20052;-81
2023/12/02 09:46:53;;;;;;;1.65;0.55;;;;;;;;;;5061329;28;20506;-78
2023/12/02 09:49:40;;;;;;;0.10;0.10;;;;;;;;;;5035286;28;20045;-79
2023/12/02 09:52:42;;;;;;;0.55;0.40;;;;;;;;;;5049366;28;20058;-77
2023/12/02 09:55:07;;;;;;;1.38;0.50;;;;;;;;;;5048605;28;20033;-79
2023/12/02 09:58:04;;;;;;;0.10;0.10;;;;;;;;;;5046714;28;20032;-79
2023/12/02 10:00:41;;;;;;;0.43;0.40;;;;;;;;;;5046279;28;20088;-78
2023/12/02 10:03:15;;;;;;;0.15;0.10;;;;;;;;;;5048963;28;20035;-80
2023/12/02 10:06:20;;;;;;;0.60;0.13;;;;;;;;;;5050524;28;20040;-78
2023/12/02 10:08:45;;;;;;;1.67;0.10;;;;;;;;;;5042925;28;20036;-77
2023/12/02 10:11:18;;;;;;;4.13;0.25;;;;;;;;;;5047200;28;22105;-79
2023/12/02 10:13:49;;;;;;;0.13;0.13;;;;;;;;;;5046231;28;20037;-78
2023/12/02 10:16:19;;;;;;;3.10;0.70;;;;;;;;;;5049339;28;20419;-78
2023/12/02 10:18:52;;;;;;;3.13;0.47;;;;;;;;;;5045784;28;20029;-78
2023/12/02 10:21:20;;;;;;;8.77;0.68;;;;;;;;;;5046264;28;20044;-78
2023/12/02 10:24:02;;;;;;;1.20;0.70;;;;;;;;;;5051119;28;20079;-77
2023/12/02 10:26:32;;;;;;;0.30;0.20;;;;;;;;;;5045618;28;20183;-79
2023/12/02 10:29:00;;;;;;;0.63;0.40;;;;;;;;;;5047047;28;20054;-79
2023/12/02 10:31:28;;;;;;;5.13;0.40;;;;;;;;;;5049001;28;20297;-78
2023/12/02 10:34:12;;;;;;;2.33;0.38;;;;;;;;;;5047565;28;20389;-79
2023/12/02 10:36:38;;;;;;;0.30;0.20;;;;;;;;;;5055847;28;20037;-78
2023/12/02 10:39:15;;;;;;;0.00;0.00;;;;;;;;;;5049275;28;20017;-77
2023/12/02 10:42:02;;;;;;;0.10;0.10;;;;;;;;;;5056737;28;20037;-78
2023/12/02 10:44:32;;;;;;;0.20;0.13;;;;;;;;;;5051705;28;20032;-78
2023/12/02 10:46:59;;;;;;;0.20;0.20;;;;;;;;;;5054546;28;20089;-77
2023/12/02 10:49:27;;;;;;;0.20;0.20;;;;;;;;;;5060677;28;20020;-78
2023/12/02 10:51:54;;;;;;;0.20;0.20;;;;;;;;;;5060657;28;20037;-80
2023/12/02 10:54:24;;;;;;;1.30;0.60;;;;;;;;;;5056199;28;20066;-79
2023/12/02 10:56:52;;;;;;;0.20;0.20;;;;;;;;;;5062509;28;20033;-78
2023/12/02 10:59:24;;;;;;;0.30;0.30;;;;;;;;;;5061423;28;20025;-79
2023/12/02 11:45:12;;;;;;;0.30;0.30;;;;;;;;;;5111646;27;20396;-83
2023/12/02 11:47:44;;;;;;;4.25;1.55;;;;;;;;;;5088894;28;20032;-79
2023/12/02 11:50:43;;;;;;;2.33;0.70;;;;;;;;;;5106170;28;20038;-79
2023/12/02 11:53:34;;;;;;;0.77;0.68;;;;;;;;;;5091795;28;21491;-81
2023/12/02 11:56:13;;;;;;;2.85;1.15;;;;;;;;;;5107601;28;20111;-81
2023/12/02 11:58:55;;;;;;;1.23;0.73;;;;;;;;;;5108140;28;20052;-79
2023/12/02 12:01:37;;;;;;;;;;;;;;;;;;;;;
2023/12/02 12:04:17;;;;;;;0.10;0.10;;;;;;;;;;5111991;28;20019;-81
2023/12/02 12:06:54;;;;;;;1.38;0.52;;;;;;;;;;5113716;28;20086;-82
2023/12/02 12:09:27;;;;;;;0.75;0.50;;;;;;;;;;5101829;28;20040;-81
2023/12/02 12:11:56;;;;;;;0.28;0.20;;;;;;;;;;5112542;28;20028;-82
2023/12/02 12:14:24;;;;;;;2.28;1.00;;;;;;;;;;5118591;28;20103;-80
2023/12/02 12:16:53;;;;;;;0.30;0.30;;;;;;;;;;5115886;28;20031;-79
2023/12/02 12:19:18;;;;;;;0.10;0.10;;;;;;;;;;5119570;28;20016;-79
2023/12/02 12:21:46;;;;;;;0.40;0.40;;;;;;;;;;5113122;28;20135;-82
2023/12/02 12:24:12;;;;;;;0.32;0.25;;;;;;;;;;5099869;28;20433;-80
2023/12/02 12:26:37;;;;;;;1.70;0.38;;;;;;;;;;5109739;27;20107;-82
2023/12/02 12:29:03;;;;;;;0.28;0.28;;;;;;;;;;5109478;28;20034;-79
2023/12/02 12:31:29;;;;;;;2.50;0.90;;;;;;;;;;5097355;27;20035;-80
2023/12/02 12:33:55;;;;;;;2.35;0.43;;;;;;;;;;5103823;28;20026;-80
2023/12/02 12:36:28;;;;;;;0.20;0.20;;;;;;;;;;5092104;28;20028;-79
2023/12/02 12:38:56;;;;;;;1.45;0.60;;;;;;;;;;5090089;28;20024;-83
2023/12/02 12:41:23;;;;;;;0.65;0.63;;;;;;;;;;5109310;28;20032;-80
2023/12/02 12:43:49;;;;;;;0.35;0.30;;;;;;;;;;5093682;28;20045;-80
2023/12/02 12:46:15;;;;;;;0.32;0.15;;;;;;;;;;5113376;28;20541;-80
2023/12/02 12:48:54;;;;;;;0.17;0.13;;;;;;;;;;5123195;28;20103;-79
2023/12/02 12:51:21;;;;;;;0.45;0.30;;;;;;;;;;5100629;28;20110;-78
2023/12/02 12:53:50;;;;;;;5.55;0.68;;;;;;;;;;5113540;28;20069;-78
2023/12/02 12:56:20;;;;;;;0.10;0.10;;;;;;;;;;5091605;28;20036;-79
2023/12/02 12:58:58;;;;;;;0.57;0.15;;;;;;;;;;5100755;28;20054;-80
2023/12/02 13:01:28;;;;;;;0.30;0.22;;;;;;;;;;5073341;28;20043;-82
2023/12/02 13:04:07;;;;;;;1.27;0.30;;;;;;;;;;5083086;28;20494;-81
2023/12/02 13:06:44;;;;;;;0.10;0.10;;;;;;;;;;5092990;28;20066;-81
2023/12/02 13:09:11;;;;;;;0.45;0.25;;;;;;;;;;5094995;28;20482;-79
2023/12/02 13:11:40;;;;;;;4.95;0.40;;;;;;;;;;5094799;28;20423;-79
2023/12/02 15:09:18;;;;;;;1.20;0.45;;;;;;;;;;6254985;22;20353;-83
2023/12/02 15:11:44;;;;;;;5.57;0.43;;;;;;;;;;6252794;23;20078;-81
2023/12/02 15:14:13;;;;;;;0.43;0.43;;;;;;;;;;6253437;23;20495;-86
2023/12/02 15:16:38;;;;;;;3.60;0.52;;;;;;;;;;6226196;23;20485;-84
2023/12/02 15:19:10;;;;;;;0.30;0.30;;;;;;;;;;6252623;23;20004;-83
2023/12/02 15:22:16;;;;;;;0.90;0.63;;;;;;;;;;6227895;23;20004;-82
2023/12/02 15:24:41;;;;;;;7.15;0.43;;;;;;;;;;6253126;23;20007;-86
2023/12/02 15:27:08;;;;;;;0.35;0.17;;;;;;;;;;6225435;23;20011;-82
2023/12/02 15:29:33;;;;;;;0.30;0.30;;;;;;;;;;6225957;23;20438;-84
2023/12/02 15:31:59;;;;;;;0.47;0.30;;;;;;;;;;6253714;23;20004;-83
2023/12/02 15:34:25;;;;;;;0.40;0.40;;;;;;;;;;6226333;23;20008;-84
2023/12/02 15:36:50;;;;;;;0.10;0.10;;;;;;;;;;6252166;23;20065;-84
2023/12/02 15:39:16;;;;;;;1.63;0.50;;;;;;;;;;6252515;23;20422;-83
2023/12/02 15:41:45;;;;;;;0.52;0.30;;;;;;;;;;6225929;23;20518;-85
2023/12/02 15:44:13;;;;;;;4.23;0.70;;;;;;;;;;6225219;23;20008;-82
2023/12/02 15:46:39;;;;;;;0.30;0.25;;;;;;;;;;6225918;23;20014;-83
2023/12/02 15:49:06;;;;;;;1.10;0.20;;;;;;;;;;6224658;23;20489;-84
2023/12/02 15:51:33;;;;;;;0.68;0.43;;;;;;;;;;6226207;23;20339;-82
2023/12/02 15:53:59;;;;;;;1.17;0.25;;;;;;;;;;6225519;23;20034;-83
2023/12/02 15:56:28;;;;;;;0.10;0.10;;;;;;;;;;6253720;23;20434;-83
2023/12/02 15:58:53;;;;;;;0.63;0.40;;;;;;;;;;6225102;23;20014;-83
2023/12/02 16:01:19;;;;;;;2.17;0.57;;;;;;;;;;6225401;23;20329;-84
2023/12/02 16:03:46;;;;;;;1.40;0.73;;;;;;;;;;6252591;23;20003;-83
2023/12/02 16:06:13;;;;;;;0.55;0.32;;;;;;;;;;6253136;23;20317;-85
2023/12/02 16:08:42;;;;;;;0.30;0.13;;;;;;;;;;6250052;23;20432;-85
2023/12/02 16:11:08;;;;;;;0.28;0.28;;;;;;;;;;6219572;23;20031;-84
2023/12/02 16:13:43;;;;;;;1.98;0.40;;;;;;;;;;6246439;23;20075;-85
2023/12/02 16:16:10;;;;;;;1.05;0.63;;;;;;;;;;6220853;23;20012;-85
2023/12/02 16:18:38;;;;;;;2.50;0.30;;;;;;;;;;6248245;23;20015;-86
2023/12/02 16:21:05;;;;;;;0.08;0.08;;;;;;;;;;6247022;23;20004;-82
2023/12/02 16:23:31;;;;;;;0.32;0.32;;;;;;;;;;6244852;23;20072;-84
2023/12/02 16:25:56;;;;;;;1.85;0.22;;;;;;;;;;6219744;23;20361;-85
2023/12/02 16:28:22;;;;;;;3.90;0.30;;;;;;;;;;6246128;23;20435;-82
2023/12/02 16:30:52;;;;;;;0.85;0.57;;;;;;;;;;6219492;23;20019;-84
2023/12/02 16:33:17;;;;;;;;;;;;;;;;;;6246896;23;20008;-85
2023/12/02 16:35:43;;;;;;;1.20;0.20;;;;;;;;;;6246764;23;20231;-82
2023/12/02 16:38:08;;;;;;;2.72;0.57;;;;;;;;;;6217526;23;20008;-87
2023/12/02 16:40:34;;;;;;;6.43;1.83;;;;;;;;;;6218036;23;20000;-83
2023/12/02 16:42:59;;;;;;;0.47;0.40;;;;;;;;;;6243898;23;20004;-84
2023/12/02 16:45:25;;;;;;;0.35;0.35;;;;;;;;;;6244193;23;20000;-83
2023/12/02 16:47:55;;;;;;;2.25;0.65;;;;;;;;;;6244842;23;20011;-82
2023/12/02 16:50:27;;;;;;;;;;;;;;;;;;6245525;23;20000;-85
2023/12/02 16:52:55;;;;;;;0.10;0.10;;;;;;;;;;6217235;23;19908;-83
2023/12/02 16:55:27;;;;;;;2.83;0.68;;;;;;;;;;6217861;23;20458;-83
2023/12/02 16:57:52;;;;;;;2.58;0.60;;;;;;;;;;6245307;23;20000;-82
2023/12/02 17:00:19;;;;;;;0.98;0.70;;;;;;;;;;6245263;23;20050;-86
2023/12/02 17:02:45;;;;;;;0.45;0.32;;;;;;;;;;6215964;23;20091;-85
2023/12/02 17:05:26;;;;;;;0.30;0.30;;;;;;;;;;6218487;23;20391;-81
2023/12/02 17:08:05;;;;;;;0.20;0.20;;;;;;;;;;6217316;23;20020;-82
2023/12/02 17:10:50;;;;;;;0.23;0.20;;;;;;;;;;6217287;23;20011;-85
2023/12/02 17:13:25;;;;;;;0.43;0.20;;;;;;;;;;6244922;23;20226;-85
2023/12/02 17:15:51;;;;;;;0.35;0.32;;;;;;;;;;6217180;23;20079;-82
2023/12/02 17:19:01;;;;;;;0.40;0.40;;;;;;;;;;6244416;23;20075;-82
2023/12/02 17:21:48;;;;;;;0.95;0.47;;;;;;;;;;6217726;23;20090;-81
2023/12/02 17:24:22;;;;;;;0.25;0.22;;;;;;;;;;6243980;23;20062;-83
2023/12/02 17:26:52;;;;;;;0.40;0.30;;;;;;;;;;6243516;23;20004;-83
2023/12/02 17:29:19;;;;;;;;;;;;;;;;;;6243954;23;20076;-80
2023/12/02 17:31:44;;;;;;;0.90;0.30;;;;;;;;;;6243645;23;20342;-82